createdAt,value
2022-12-01T00:00:33.869Z,178.95
2022-12-01T00:03:36.015Z,202.45
2022-12-01T00:06:37.477Z,207.23
2022-12-01T00:09:38.897Z,259.30
2022-12-01T00:12:40.389Z,219.20
2022-12-01T00:15:41.855Z,236.60
2022-12-01T00:18:43.662Z,234.30
2022-12-01T00:21:46.175Z,231.20
2022-12-01T00:24:47.707Z,232.40
2022-12-01T00:27:50.472Z,239.25
2022-12-01T00:30:51.920Z,227.48
2022-12-01T00:33:53.405Z,241.77
2022-12-01T00:36:55.311Z,227.27
2022-12-01T00:39:57.687Z,261.38
2022-12-01T00:42:59.073Z,296.70
2022-12-01T00:46:00.733Z,306.10
2022-12-01T00:49:02.270Z,306.40
2022-12-01T00:52:03.768Z,359.08
2022-12-01T00:55:05.642Z,353.25
2022-12-01T00:58:07.257Z,358.70
2022-12-01T01:01:08.805Z,366.00
2022-12-01T01:04:10.361Z,372.77
2022-12-01T01:07:11.864Z,357.52
2022-12-01T01:10:13.274Z,353.33
2022-12-01T01:13:15.178Z,354.17
2022-12-01T01:16:20.146Z,340.92
2022-12-01T01:19:22.075Z,363.42
2022-12-01T01:22:23.480Z,361.67
2022-12-01T01:25:25.143Z,365.17
2022-12-01T01:28:26.595Z,327.35
2022-12-01T01:31:30.301Z,336.52
2022-12-01T01:34:31.844Z,338.80
2022-12-01T01:37:33.245Z,350.27
2022-12-01T01:40:34.728Z,339.70
2022-12-01T01:43:43.661Z,355.58
2022-12-01T01:46:45.092Z,397.13
2022-12-01T01:49:47.468Z,369.70
2022-12-01T01:52:54.968Z,362.67
2022-12-01T01:55:56.864Z,337.95
2022-12-01T01:58:59.209Z,345.33
2022-12-01T02:02:05.372Z,380.73
2022-12-01T02:05:09.396Z,382.80
2022-12-01T02:08:11.424Z,379.67
2022-12-01T02:11:40.173Z,355.95
2022-12-01T02:14:56.682Z,374.20
2022-12-01T02:18:13.644Z,348.52
2022-12-01T02:21:30.212Z,377.02
2022-12-01T02:25:09.245Z,365.98
2022-12-01T02:28:16.664Z,361.90
2022-12-01T02:31:36.608Z,379.73
2022-12-01T02:34:44.750Z,369.25
2022-12-01T02:37:56.801Z,386.92
2022-12-01T02:41:26.260Z,389.25
2022-12-01T02:44:36.013Z,368.17
2022-12-01T02:47:40.259Z,383.42
2022-12-01T02:53:44.381Z,342.10
2022-12-01T02:56:45.787Z,346.52
2022-12-01T02:59:50.662Z,391.83
2022-12-01T03:03:08.738Z,372.77
2022-12-01T03:06:29.787Z,386.83
2022-12-01T03:09:50.120Z,380.63
2022-12-01T03:13:10.427Z,360.20
2022-12-01T03:16:14.300Z,367.65
2022-12-01T03:19:26.451Z,383.05
2022-12-01T03:22:41.527Z,331.63
2022-12-01T03:25:48.287Z,323.70
2022-12-01T03:28:56.513Z,367.38
2022-12-01T03:32:03.424Z,376.20
2022-12-01T03:35:10.491Z,364.35
2022-12-01T03:38:15.501Z,393.85
2022-12-01T03:41:24.696Z,393.08
2022-12-01T03:44:34.298Z,365.83
2022-12-01T03:47:36.170Z,391.55
2022-12-01T03:51:12.662Z,367.65
2022-12-01T03:54:22.038Z,351.48
2022-12-01T03:57:34.704Z,397.08
2022-12-01T04:00:37.197Z,359.08
2022-12-01T04:03:38.917Z,369.58
2022-12-01T04:06:43.131Z,361.88
2022-12-01T04:12:46.054Z,324.63
2022-12-01T04:15:47.865Z,396.83
2022-12-01T04:18:49.347Z,382.10
2022-12-01T04:21:50.821Z,390.42
2022-12-01T04:24:52.720Z,396.90
2022-12-01T04:27:54.097Z,430.15
2022-12-01T04:30:55.595Z,405.45
2022-12-01T04:33:58.854Z,416.67
2022-12-01T04:37:00.549Z,444.13
2022-12-01T04:40:02.014Z,417.50
2022-12-01T04:43:03.450Z,396.75
2022-12-01T04:46:05.635Z,419.33
2022-12-01T04:49:07.085Z,410.35
2022-12-01T04:52:08.538Z,386.30
2022-12-01T04:55:10.308Z,408.17
2022-12-01T04:58:11.851Z,408.48
2022-12-01T05:01:15.794Z,386.83
2022-12-01T05:04:17.247Z,380.92
2022-12-01T05:07:18.791Z,354.23
2022-12-01T05:10:20.344Z,395.00
2022-12-01T05:13:21.798Z,365.45
2022-12-01T05:16:26.283Z,377.40
2022-12-01T05:19:27.852Z,359.05
2022-12-01T05:23:03.238Z,359.83
2022-12-01T05:25:51.153Z,390.02
2022-12-01T05:28:52.536Z,371.92
2022-12-01T05:31:54.032Z,385.80
2022-12-01T05:34:55.550Z,402.45
2022-12-01T05:37:56.963Z,392.92
2022-12-01T05:40:58.379Z,336.67
2022-12-01T05:43:59.763Z,362.17
2022-12-01T05:47:01.187Z,382.75
2022-12-01T05:50:05.771Z,387.92
2022-12-01T05:53:08.010Z,420.92
2022-12-01T05:56:09.587Z,428.30
2022-12-01T05:59:10.990Z,398.05
2022-12-01T06:02:12.408Z,399.13
2022-12-01T06:05:13.864Z,410.75
2022-12-01T06:08:15.325Z,383.52
2022-12-01T06:11:16.796Z,412.83
2022-12-01T06:14:18.318Z,423.63
2022-12-01T06:17:19.740Z,386.83
2022-12-01T06:20:21.204Z,401.58
2022-12-01T06:23:26.306Z,383.17
2022-12-01T06:26:30.343Z,401.55
2022-12-01T06:29:31.865Z,400.42
2022-12-01T06:32:33.383Z,394.75
2022-12-01T06:35:35.679Z,340.30
2022-12-01T06:38:37.565Z,394.90
2022-12-01T06:41:39.242Z,387.10
2022-12-01T06:44:40.742Z,388.02
2022-12-01T06:47:42.164Z,386.40
2022-12-01T06:50:43.626Z,399.45
2022-12-01T06:53:45.007Z,378.65
2022-12-01T06:56:46.491Z,412.58
2022-12-01T06:59:48.403Z,406.20
2022-12-01T07:02:50.941Z,418.45
2022-12-01T07:05:57.535Z,346.50
2022-12-01T07:08:58.998Z,384.02
2022-12-01T07:12:00.459Z,400.30
2022-12-01T07:15:02.213Z,422.25
2022-12-01T07:18:03.635Z,423.02
2022-12-01T07:21:07.532Z,415.08
2022-12-01T07:24:09.234Z,432.88
2022-12-01T07:27:10.742Z,418.50
2022-12-01T07:30:12.549Z,441.13
2022-12-01T07:33:13.973Z,416.90
2022-12-01T07:36:15.596Z,468.83
2022-12-01T07:39:17.074Z,418.50
2022-12-01T07:42:18.465Z,437.20
2022-12-01T07:45:19.892Z,446.27
2022-12-01T07:48:21.348Z,459.80
2022-12-01T07:51:24.659Z,420.67
2022-12-01T07:54:26.084Z,481.87
2022-12-01T07:57:27.658Z,456.88
2022-12-01T08:00:29.073Z,475.52
2022-12-01T08:03:30.533Z,445.25
2022-12-01T08:06:31.933Z,505.00
2022-12-01T08:09:33.324Z,476.73
2022-12-01T08:12:35.150Z,478.70
2022-12-01T08:15:36.756Z,464.35
2022-12-01T08:18:39.664Z,424.80
2022-12-01T08:21:41.488Z,441.05
2022-12-01T08:24:43.012Z,448.50
2022-12-01T08:27:44.772Z,451.20
2022-12-01T08:30:47.358Z,459.73
2022-12-01T08:33:49.760Z,422.65
2022-12-01T08:36:51.374Z,451.40
2022-12-01T08:39:52.826Z,454.45
2022-12-01T08:43:03.157Z,463.52
2022-12-01T08:46:06.644Z,473.98
2022-12-01T08:49:08.157Z,454.80
2022-12-01T08:52:09.613Z,445.63
2022-12-01T08:55:11.574Z,439.00
2022-12-01T08:58:13.046Z,430.58
2022-12-01T09:01:16.060Z,470.85
2022-12-01T09:04:22.637Z,441.00
2022-12-01T09:07:26.574Z,440.85
2022-12-01T09:10:28.514Z,446.05
2022-12-01T09:13:30.819Z,464.70
2022-12-01T09:16:33.315Z,466.23
2022-12-01T09:19:35.307Z,438.98
2022-12-01T09:22:36.749Z,464.15
2022-12-01T09:25:38.204Z,457.23
2022-12-01T09:28:39.619Z,425.20
2022-12-01T09:31:42.011Z,422.10
2022-12-01T09:34:43.572Z,386.48
2022-12-01T09:37:44.965Z,416.83
2022-12-01T09:40:46.434Z,371.88
2022-12-01T09:44:00.853Z,380.25
2022-12-01T09:47:23.905Z,340.45
2022-12-01T09:50:26.770Z,352.95
2022-12-01T09:53:29.216Z,345.08
2022-12-01T09:56:39.512Z,354.17
2022-12-01T09:59:41.501Z,368.00
2022-12-01T10:03:09.255Z,410.85
2022-12-01T10:06:27.683Z,411.20
2022-12-01T10:09:44.250Z,427.50
2022-12-01T10:12:47.060Z,420.95
2022-12-01T10:15:54.780Z,399.08
2022-12-01T10:18:56.254Z,420.67
2022-12-01T10:22:29.882Z,429.52
2022-12-01T10:25:45.830Z,406.80
2022-12-01T10:29:05.588Z,399.75
2022-12-01T10:32:19.208Z,418.95
2022-12-01T10:35:23.363Z,368.13
2022-12-01T10:41:35.009Z,384.55
2022-12-01T10:44:36.561Z,352.05
2022-12-01T10:47:38.004Z,344.95
2022-12-01T10:50:39.451Z,342.77
2022-12-01T10:53:42.051Z,333.38
2022-12-01T10:56:47.008Z,313.42
2022-12-01T10:59:52.699Z,324.33
2022-12-01T11:02:55.189Z,305.65
2022-12-01T11:05:59.762Z,272.85
2022-12-01T11:09:03.873Z,276.88
2022-12-01T11:12:05.543Z,232.02
2022-12-01T11:15:08.028Z,207.00
2022-12-01T11:18:28.350Z,203.00
2022-12-01T11:21:29.823Z,193.48
2022-12-01T11:24:53.716Z,151.50
2022-12-01T11:28:20.042Z,130.02
2022-12-01T11:31:34.631Z,122.15
2022-12-01T11:34:36.183Z,103.47
2022-12-01T11:37:54.918Z,104.15
2022-12-01T11:41:28.859Z,99.63
2022-12-01T11:44:50.969Z,104.22
2022-12-01T11:47:59.033Z,104.28
2022-12-01T11:51:11.659Z,79.82
2022-12-01T11:54:20.003Z,87.05
2022-12-01T11:57:36.633Z,84.28
2022-12-01T12:00:50.006Z,75.88
2022-12-01T12:04:19.130Z,62.30
2022-12-01T12:07:35.950Z,61.75
2022-12-01T12:10:57.092Z,66.85
2022-12-01T12:14:29.775Z,58.90
2022-12-01T12:18:09.098Z,65.85
2022-12-01T12:21:38.626Z,63.75
2022-12-01T12:25:04.056Z,63.67
2022-12-01T12:28:28.391Z,56.60
2022-12-01T12:31:58.475Z,61.20
2022-12-01T12:35:15.879Z,52.00
2022-12-01T12:38:54.950Z,57.10
2022-12-01T12:41:57.634Z,56.22
2022-12-01T12:45:14.893Z,54.22
2022-12-01T12:49:12.131Z,56.13
2022-12-01T12:52:45.346Z,52.42
2022-12-01T12:55:50.813Z,56.67
2022-12-01T12:59:09.931Z,57.50
2022-12-01T13:02:19.817Z,49.78
2022-12-01T13:05:27.518Z,51.25
2022-12-01T13:08:40.352Z,46.83
2022-12-01T13:11:47.531Z,49.90
2022-12-01T13:14:59.421Z,46.85
2022-12-01T13:18:18.884Z,50.25
2022-12-01T13:21:22.819Z,45.28
2022-12-01T13:24:27.884Z,49.25
2022-12-01T13:27:47.835Z,49.50
2022-12-01T13:31:07.275Z,53.58
2022-12-01T13:34:20.557Z,43.67
2022-12-01T13:37:28.314Z,42.90
2022-12-01T13:40:31.091Z,48.67
2022-12-01T13:43:32.544Z,43.70
2022-12-01T13:46:36.921Z,45.03
2022-12-01T13:49:41.369Z,44.88
2022-12-01T13:52:50.162Z,46.08
2022-12-01T13:56:00.776Z,38.25
2022-12-01T13:59:02.407Z,42.15
2022-12-01T14:02:16.059Z,47.33
2022-12-01T14:05:41.584Z,45.35
2022-12-01T14:08:48.883Z,41.83
2022-12-01T14:12:10.671Z,40.17
2022-12-01T14:15:29.441Z,44.22
2022-12-01T14:18:34.803Z,43.70
2022-12-01T14:21:45.891Z,37.95
2022-12-01T14:24:52.569Z,46.03
2022-12-01T14:27:59.829Z,44.72
2022-12-01T14:31:17.503Z,46.85
2022-12-01T14:34:29.724Z,40.47
2022-12-01T14:37:39.289Z,47.00
2022-12-01T14:40:40.875Z,47.63
2022-12-01T14:43:43.125Z,48.25
2022-12-01T14:47:12.036Z,46.25
2022-12-01T14:50:32.710Z,48.90
2022-12-01T14:53:38.611Z,46.60
2022-12-01T14:56:41.462Z,44.88
2022-12-01T14:59:42.969Z,41.38
2022-12-01T15:02:59.886Z,48.60
2022-12-01T15:06:01.395Z,41.63
2022-12-01T15:09:32.742Z,44.97
2022-12-01T15:12:33.638Z,43.03
2022-12-01T15:15:35.098Z,51.22
2022-12-01T15:18:36.853Z,45.45
2022-12-01T15:21:38.355Z,47.28
2022-12-01T15:24:40.491Z,40.55
2022-12-01T15:27:44.776Z,39.75
2022-12-01T15:33:52.052Z,40.53
2022-12-01T15:36:54.285Z,50.80
2022-12-01T15:43:27.995Z,49.30
2022-12-01T15:46:31.863Z,49.88
2022-12-01T15:49:33.314Z,47.60
2022-12-01T15:52:44.579Z,39.38
2022-12-01T15:55:50.078Z,41.17
2022-12-01T15:58:58.103Z,40.13
2022-12-01T16:02:05.329Z,38.92
2022-12-01T16:05:12.828Z,44.10
2022-12-01T16:08:24.391Z,45.22
2022-12-01T16:11:26.635Z,48.33
2022-12-01T16:14:28.103Z,38.97
2022-12-01T16:17:42.924Z,40.33
2022-12-01T16:20:44.518Z,48.42
2022-12-01T16:23:45.987Z,43.78
2022-12-01T16:27:10.293Z,42.97
2022-12-01T16:30:27.132Z,44.63
2022-12-01T16:33:29.457Z,56.67
2022-12-01T16:36:31.161Z,57.67
2022-12-01T16:39:32.631Z,83.43
2022-12-01T16:42:34.149Z,65.20
2022-12-01T16:45:35.913Z,64.60
2022-12-01T16:48:37.641Z,57.38
2022-12-01T16:51:54.837Z,55.72
2022-12-01T16:54:57.709Z,63.53
2022-12-01T16:57:59.431Z,61.10
2022-12-01T17:01:01.030Z,68.63
2022-12-01T17:04:07.376Z,69.95
2022-12-01T17:07:09.331Z,58.38
2022-12-01T17:10:11.912Z,67.00
2022-12-01T17:13:13.974Z,66.72
2022-12-01T17:16:18.441Z,61.75
2022-12-01T17:19:20.353Z,59.42
2022-12-01T17:22:21.945Z,59.35
2022-12-01T17:25:23.810Z,64.03
2022-12-01T17:28:25.807Z,66.25
2022-12-01T17:31:27.321Z,64.82
2022-12-01T17:34:29.037Z,62.80
2022-12-01T17:37:30.586Z,71.50
2022-12-01T17:40:32.611Z,80.88
2022-12-01T17:43:36.903Z,80.70
2022-12-01T17:46:38.812Z,91.38
2022-12-01T17:49:40.349Z,83.72
2022-12-01T17:52:42.443Z,80.63
2022-12-01T17:55:44.270Z,81.22
2022-12-01T17:58:47.534Z,86.57
2022-12-01T18:01:52.479Z,94.35
2022-12-01T18:04:54.267Z,91.07
2022-12-01T18:07:56.009Z,88.85
2022-12-01T18:11:03.311Z,100.45
2022-12-01T18:14:10.552Z,84.13
2022-12-01T18:17:12.229Z,91.47
2022-12-01T18:20:14.707Z,87.22
2022-12-01T18:23:16.128Z,84.15
2022-12-01T18:26:18.218Z,74.18
2022-12-01T18:29:26.339Z,73.32
2022-12-01T18:32:28.178Z,78.65
2022-12-01T18:35:32.006Z,81.72
2022-12-01T18:38:34.629Z,95.18
2022-12-01T18:41:36.963Z,89.35
2022-12-01T18:44:38.446Z,88.15
2022-12-01T18:47:39.908Z,119.43
2022-12-01T18:50:41.578Z,116.03
2022-12-01T18:53:43.351Z,134.85
2022-12-01T18:56:45.116Z,131.95
2022-12-01T18:59:46.625Z,126.15
2022-12-01T19:02:48.096Z,133.50
2022-12-01T19:05:49.767Z,136.90
2022-12-01T19:08:52.684Z,116.90
2022-12-01T19:11:57.547Z,135.25
2022-12-01T19:15:03.353Z,143.68
2022-12-01T19:18:05.134Z,134.07
2022-12-01T19:21:08.449Z,378.98
2022-12-01T19:24:09.883Z,146.90
2022-12-01T19:27:11.465Z,136.52
2022-12-01T19:30:14.691Z,127.93
2022-12-01T19:33:19.354Z,130.70
2022-12-01T19:36:26.231Z,126.57
2022-12-01T19:39:28.095Z,126.90
2022-12-01T19:42:29.536Z,113.65
2022-12-01T19:45:31.091Z,120.18
2022-12-01T19:48:32.791Z,137.48
2022-12-01T19:51:39.223Z,113.60
2022-12-01T19:54:40.898Z,112.80
2022-12-01T19:57:42.397Z,107.95
2022-12-01T20:00:44.605Z,114.15
2022-12-01T20:03:48.548Z,119.68
2022-12-01T20:06:50.117Z,130.00
2022-12-01T20:09:51.601Z,129.20
2022-12-01T20:12:53.026Z,135.63
2022-12-01T20:15:58.055Z,141.15
2022-12-01T20:19:01.687Z,145.32
2022-12-01T20:22:03.380Z,137.77
2022-12-01T20:25:08.283Z,143.00
2022-12-01T20:28:09.764Z,140.93
2022-12-01T20:31:18.656Z,120.32
2022-12-01T20:34:32.678Z,162.00
2022-12-01T20:37:34.509Z,128.93
2022-12-01T20:40:36.249Z,136.88
2022-12-01T20:43:38.169Z,161.75
2022-12-01T20:46:47.691Z,140.77
2022-12-01T20:49:52.086Z,163.20
2022-12-01T20:53:02.554Z,113.55
2022-12-01T20:56:21.825Z,109.20
2022-12-01T20:59:23.388Z,101.28
2022-12-01T21:02:24.904Z,100.43
2022-12-01T21:05:27.315Z,108.50
2022-12-01T21:08:28.756Z,101.65
2022-12-01T21:11:34.731Z,100.97
2022-12-01T21:14:56.558Z,99.30
2022-12-01T21:18:05.326Z,105.97
2022-12-01T21:21:25.374Z,107.85
2022-12-01T21:24:33.541Z,101.72
2022-12-01T21:27:36.376Z,107.43
2022-12-01T21:30:37.822Z,95.35
2022-12-01T21:33:40.557Z,92.40
2022-12-01T21:36:41.960Z,90.53
2022-12-01T21:39:43.444Z,85.22
2022-12-01T21:42:44.860Z,89.82
2022-12-01T21:45:49.748Z,78.82
2022-12-01T21:48:51.177Z,85.78
2022-12-01T21:51:53.490Z,70.30
2022-12-01T21:55:00.440Z,76.70
2022-12-01T21:58:02.487Z,72.95
2022-12-01T22:01:16.538Z,78.63
2022-12-01T22:04:29.300Z,84.35
2022-12-01T22:07:30.855Z,81.72
2022-12-01T22:10:58.979Z,70.80
2022-12-01T22:14:22.430Z,83.57
2022-12-01T22:17:23.943Z,84.82
2022-12-01T22:20:25.476Z,82.18
2022-12-01T22:23:32.949Z,90.63
2022-12-01T22:26:37.259Z,96.30
2022-12-01T22:29:44.287Z,85.40
2022-12-01T22:32:54.808Z,78.78
2022-12-01T22:35:56.275Z,83.72
2022-12-01T22:38:58.541Z,84.47
2022-12-01T22:42:05.254Z,83.97
2022-12-01T22:45:24.648Z,81.18
2022-12-01T22:48:46.567Z,78.88
2022-12-01T22:51:50.419Z,78.47
2022-12-01T22:54:52.218Z,69.60
2022-12-01T22:57:54.664Z,76.07
2022-12-01T23:01:00.878Z,76.85
2022-12-01T23:04:18.833Z,82.60
2022-12-01T23:07:28.655Z,78.85
2022-12-01T23:10:34.108Z,87.80
2022-12-01T23:13:35.561Z,65.90
2022-12-01T23:16:39.761Z,78.68
2022-12-01T23:22:42.570Z,75.63
2022-12-01T23:25:45.221Z,84.50
2022-12-01T23:28:46.683Z,72.97
2022-12-01T23:31:49.972Z,85.63
2022-12-01T23:34:54.648Z,92.83
2022-12-01T23:38:00.071Z,87.22
2022-12-01T23:41:05.602Z,89.32
2022-12-01T23:44:26.380Z,101.00
2022-12-01T23:47:29.216Z,73.65
2022-12-01T23:50:31.161Z,95.97
2022-12-01T23:53:32.985Z,84.03
2022-12-01T23:56:37.492Z,80.80
2022-12-01T23:59:39.072Z,87.97
